Monday, February 19, 2018, 4:57 AM EST
Back to Local

KMUI, Muir Army Air Field / Indiantown

Location: Jonestown, PA, United States Lat: 40.433
Local Time: 4:57 AM EST ( 9:57 GMT) Lon: -76.567
Time Zone: US/Eastern Elev: 488 ft

Show me the last for .
Show Decoded

2018-02-19 03:56 METAR KMUI 190856Z AUTO 00000KT 10SM BKN045 M02/M02 A3046 RMK AO2 SLP323
                 T10191019 55002 $ =
2018-02-19 02:56 METAR KMUI 190756Z AUTO 04003KT 10SM CLR M02/M02 A3046 RMK AO2 SLP323 T10241024
                 $ =
2018-02-19 01:56 METAR KMUI 190656Z AUTO 01003KT 10SM CLR M03/M03 A3046 RMK AO2 SLP323 T10331033
                 $ =
2018-02-19 00:56 METAR KMUI 190556Z AUTO 03004KT 10SM CLR M04/M04 A3046 RMK AO2 SLP323 T10361036
                 10011 21036 52006 $ =
2018-02-18 23:56 METAR KMUI 190456Z AUTO 04003KT 10SM CLR M03/M03 A3046 RMK AO2 SLP323 T10321032
                 400641034 $ =
2018-02-18 22:56 METAR KMUI 190356Z AUTO 00000KT 10SM CLR M02/M02 A3045 RMK AO2 SLP320 T10251025
                 $ =
2018-02-18 21:56 METAR KMUI 190256Z AUTO 00000KT 10SM CLR M02/M02 A3045 RMK AO2 SLP320 T10251025
                 50004 $ =
2018-02-18 20:56 METAR KMUI 190156Z AUTO 00000KT 10SM CLR M01/M01 A3045 RMK AO2 SLP320 T10091009
                 $ =
2018-02-18 19:56 METAR KMUI 190056Z AUTO 00000KT 10SM CLR M01/M01 A3044 RMK AO2 SLP317 T10071007
                 $ =
2018-02-18 18:56 METAR KMUI 182356Z AUTO 00000KT 10SM CLR 01/00 A3043 RMK AO2 SLP313 T00111001
                 10064 20011 52015 $ =
2018-02-18 17:56 METAR KMUI 182256Z AUTO 25003KT 10SM CLR 04/M02 A3042 RMK AO2 SLP309 T00411023 $
                 =
2018-02-18 16:56 METAR KMUI 182156Z AUTO 23004KT 10SM CLR 05/M02 A3040 RMK AO2 SLP302 T00531023 $
                 =
2018-02-18 15:56 METAR KMUI 182056Z AUTO 20007KT 10SM FEW045 06/M02 A3039 RMK AO2 SLP298
                 T00621022 53003 $ =
2018-02-18 14:56 METAR KMUI 181956Z AUTO 32003KT 10SM CLR 06/M05 A3038 RMK AO2 SLP295 T00611047 $
                 =
2018-02-18 13:56 METAR KMUI 181856Z AUTO 28006KT 10SM SCT043 06/M04 A3036 RMK AO2 SLP289
                 T00551041 $ =
2018-02-18 12:56 METAR KMUI 181756Z AUTO 28004KT 10SM BKN042 05/M04 A3038 RMK AO2 SLP295
                 T00491041 10057 20008 52023 $ =
2018-02-18 11:56 METAR KMUI 181656Z AUTO 30005KT 10SM FEW040 05/M04 A3036 RMK AO2 SLP289 P0001
                 T00491041 $ =
2018-02-18 10:56 METAR KMUI 181556Z AUTO 35009G18KT 10SM FEW037 04/M04 A3034 RMK AO2 SLP282
                 T00391038 $ =
2018-02-18 09:56 METAR KMUI 181456Z AUTO 27007G20KT 10SM BKN037 03/M03 A3031 RMK AO2 SLPNO
                 T00291032 52043 $ =
2018-02-18 08:56 METAR KMUI 181356Z AUTO 26004KT 10SM OVC038 02/M02 A3029 RMK AO2 SLP266
                 T00231019 $ =
2018-02-18 08:12 METAR KMUI 181312Z AUTO 27004KT 10SM BKN030 OVC038 02/M01 A3025 RMK AO2 SLP252 $
                 =
2018-02-18 08:04 METAR KMUI 181304Z AUTO 00000KT 10SM BKN028 OVC034 02/M01 A3025 RMK AO2 CIG
                 028V036 BKN V SCT SLP252 $ =
2018-02-18 07:56 METAR KMUI 181256Z AUTO 00000KT 10SM SCT028 OVC036 02/M01 A3024 RMK AO2 SLP249
                 T00171006 $ =
2018-02-18 07:24 METAR KMUI 181224Z AUTO 00000KT 10SM SCT027 OVC037 02/00 A3021 RMK AO2 SLP238 $
                 =
2018-02-18 07:20 METAR KMUI 181220Z AUTO 35003KT 10SM BKN027 BKN036 02/00 A3021 RMK AO2 CIG
                 026V036 PRESRR SLP238 $ =
2018-02-18 06:56 METAR KMUI 181156Z AUTO 36004KT 10SM BKN026 OVC033 01/00 A3018 RMK AO2 SLP228
                 60000 70001 T00110004 10014 21020 52036 $ =
2018-02-18 06:32 METAR KMUI 181132Z AUTO 00000KT 10SM BKN026 BKN033 01/00 A3018 RMK AO2 CIG
                 026V033 BKN026 V SCT PRESRR SLP228 $ =
2018-02-18 05:56 METAR KMUI 181056Z AUTO 20006KT 10SM SCT022 01/01 A3014 RMK AO2 UPB16E26 SLP215
                 P0000 T00090006 $ =

Support USWX by starting your Amazon purchase here.